DLH1498 EDDF-LPFR
Flight info
| Callsign | DLH1498 |
|---|---|
| Flight time | N/A |
| Altitude | 32000 |
| Route | ANEKI2L/18 ANEKI DCT VABEN DCT OVTEC DCT OBORN DCT MOROK/N0447F330 DCT GILIR DCT NINTU DCT MEBAK DCT REPSI DCT LERGA DCT MINSO DCT NARAK DCT AGN/N0454F350 DCT PIPOR L866 PPN DCT MIRPO DCT DGO DCT NEA L14 ADINO DCT RAKOD DCT ELVAR DCT ALAGU DCT USALU |
| Aircraft | A321/M-SDE2E3FGIJ1LORWXYZ/HB1 |
Departure
| Time | 2026-05-04 15:32 |
|---|---|
| Airport | Frankfurt Main Airport (EDDF) |
Arrival
| Time | N/A |
|---|---|
| Airport | Faro - Gago Coutinho International Airport (LPFR) |
| Time | Latitude | Longitude | Altitude | Speed | Heading |
|---|---|---|---|---|---|
| 2026-05-04 14:56 | 50.04852 | 8.56947 | 358 ft | 0 kts | 295° |
| 2026-05-04 15:19 | 50.04851 | 8.56949 | 359 ft | 2 kts | 295° |
| 2026-05-04 15:19 | 50.04829 | 8.57013 | 364 ft | 4 kts | 285° |
| 2026-05-04 15:20 | 50.04828 | 8.57050 | 361 ft | 4 kts | 237° |
| 2026-05-04 15:20 | 50.04838 | 8.57066 | 362 ft | 0 kts | 205° |
| 2026-05-04 15:20 | 50.04818 | 8.57052 | 360 ft | 4 kts | 202° |
| 2026-05-04 15:20 | 50.04797 | 8.57038 | 359 ft | 1 kts | 205° |
| 2026-05-04 15:24 | 50.04697 | 8.56966 | 359 ft | 15 kts | 204° |
| 2026-05-04 15:25 | 50.04586 | 8.56905 | 360 ft | 17 kts | 194° |
| 2026-05-04 15:25 | 50.04482 | 8.56862 | 359 ft | 14 kts | 202° |
| 2026-05-04 15:25 | 50.04433 | 8.56749 | 363 ft | 12 kts | 248° |
| 2026-05-04 15:26 | 50.04374 | 8.56506 | 360 ft | 12 kts | 249° |
| 2026-05-04 15:26 | 50.04341 | 8.56364 | 364 ft | 16 kts | 250° |
| 2026-05-04 15:26 | 50.04250 | 8.55996 | 361 ft | 21 kts | 250° |
| 2026-05-04 15:27 | 50.04200 | 8.55778 | 359 ft | 23 kts | 249° |
| 2026-05-04 15:27 | 50.04082 | 8.55277 | 365 ft | 27 kts | 249° |
| 2026-05-04 15:28 | 50.03962 | 8.54773 | 363 ft | 22 kts | 246° |
| 2026-05-04 15:28 | 50.03912 | 8.54567 | 360 ft | 19 kts | 248° |
| 2026-05-04 15:28 | 50.03796 | 8.54206 | 359 ft | 21 kts | 246° |
| 2026-05-04 15:29 | 50.03742 | 8.53983 | 363 ft | 24 kts | 250° |
| 2026-05-04 15:30 | 50.03535 | 8.53128 | 360 ft | 15 kts | 249° |
| 2026-05-04 15:30 | 50.03422 | 8.52686 | 363 ft | 21 kts | 240° |
| 2026-05-04 15:31 | 50.03081 | 8.52597 | 358 ft | 60 kts | 180° |
| 2026-05-04 15:31 | 50.02434 | 8.52602 | 366 ft | 124 kts | 179° |
| 2026-05-04 15:32 | 49.98917 | 8.52736 | 1537 ft | 183 kts | 180° |
| 2026-05-04 15:32 | 49.96297 | 8.53049 | 2531 ft | 202 kts | 180° |
| 2026-05-04 15:33 | 49.93211 | 8.53186 | 3129 ft | 234 kts | 180° |
| 2026-05-04 15:34 | 49.88249 | 8.53478 | 4010 ft | 237 kts | 180° |
| 2026-05-04 15:34 | 49.86600 | 8.53581 | 4015 ft | 236 kts | 180° |
| 2026-05-04 15:34 | 49.83317 | 8.53796 | 4004 ft | 236 kts | 179° |
| 2026-05-04 15:35 | 49.80021 | 8.54022 | 5208 ft | 235 kts | 179° |
| 2026-05-04 15:35 | 49.78401 | 8.54128 | 6049 ft | 231 kts | 180° |
| 2026-05-04 15:35 | 49.76764 | 8.53979 | 6551 ft | 245 kts | 185° |
| 2026-05-04 15:36 | 49.73195 | 8.53494 | 7575 ft | 263 kts | 186° |
| 2026-05-04 15:36 | 49.71369 | 8.53248 | 8273 ft | 265 kts | 186° |
| 2026-05-04 15:36 | 49.69528 | 8.53004 | 8976 ft | 267 kts | 186° |
| 2026-05-04 15:37 | 49.67674 | 8.52760 | 9697 ft | 268 kts | 186° |
| 2026-05-04 15:37 | 49.65798 | 8.52514 | 10239 ft | 277 kts | 187° |
| 2026-05-04 15:37 | 49.63801 | 8.52246 | 10366 ft | 298 kts | 187° |
| 2026-05-04 15:37 | 49.61661 | 8.51959 | 10491 ft | 318 kts | 186° |
| 2026-05-04 15:38 | 49.59390 | 8.51656 | 10612 ft | 337 kts | 186° |
| 2026-05-04 15:38 | 49.56987 | 8.51339 | 10740 ft | 354 kts | 186° |
| 2026-05-04 15:38 | 49.54478 | 8.51012 | 10865 ft | 370 kts | 186° |
| 2026-05-04 15:38 | 49.51880 | 8.50674 | 11144 ft | 379 kts | 186° |
| 2026-05-04 15:39 | 49.49232 | 8.50328 | 11591 ft | 383 kts | 186° |
| 2026-05-04 15:39 | 49.46563 | 8.49978 | 12063 ft | 387 kts | 186° |
| 2026-05-04 15:39 | 49.41147 | 8.49272 | 12994 ft | 394 kts | 187° |
| 2026-05-04 15:40 | 49.38400 | 8.48913 | 13477 ft | 397 kts | 187° |
| 2026-05-04 15:40 | 49.35655 | 8.48512 | 14009 ft | 398 kts | 191° |
| 2026-05-04 15:40 | 49.32963 | 8.47473 | 14391 ft | 401 kts | 201° |
| 2026-05-04 15:40 | 49.30445 | 8.45641 | 14908 ft | 402 kts | 212° |
| 2026-05-04 15:41 | 49.28187 | 8.43103 | 15457 ft | 404 kts | 222° |
| 2026-05-04 15:41 | 49.26098 | 8.40191 | 15983 ft | 407 kts | 223° |
| 2026-05-04 15:41 | 49.23995 | 8.37258 | 16523 ft | 410 kts | 223° |
| 2026-05-04 15:41 | 49.21873 | 8.34306 | 17039 ft | 414 kts | 222° |
| 2026-05-04 15:42 | 49.19733 | 8.31331 | 17529 ft | 418 kts | 222° |
| 2026-05-04 15:42 | 49.17572 | 8.28331 | 18030 ft | 421 kts | 222° |
| 2026-05-04 15:42 | 49.15396 | 8.25314 | 18504 ft | 424 kts | 222° |
| 2026-05-04 15:42 | 49.13200 | 8.22270 | 18966 ft | 427 kts | 222° |
| 2026-05-04 15:43 | 49.10994 | 8.19214 | 19425 ft | 430 kts | 222° |
| 2026-05-04 15:43 | 49.08775 | 8.16148 | 19898 ft | 432 kts | 222° |
| 2026-05-04 15:43 | 49.06544 | 8.13053 | 20376 ft | 435 kts | 223° |
| 2026-05-04 15:43 | 49.04358 | 8.09852 | 20817 ft | 437 kts | 225° |
| 2026-05-04 15:44 | 49.02215 | 8.06541 | 21214 ft | 439 kts | 226° |
| 2026-05-04 15:44 | 49.00102 | 8.03174 | 21585 ft | 441 kts | 226° |
| 2026-05-04 15:44 | 48.97987 | 7.99773 | 21920 ft | 443 kts | 226° |
| 2026-05-04 15:44 | 48.95857 | 7.96368 | 22231 ft | 445 kts | 226° |
| 2026-05-04 15:45 | 48.93705 | 7.92967 | 22534 ft | 447 kts | 225° |
| 2026-05-04 15:45 | 48.91538 | 7.89579 | 22855 ft | 447 kts | 225° |
| 2026-05-04 15:45 | 48.89360 | 7.86202 | 23179 ft | 448 kts | 225° |
| 2026-05-04 15:45 | 48.87174 | 7.82829 | 23422 ft | 449 kts | 225° |
| 2026-05-04 15:46 | 48.84979 | 7.79445 | 23640 ft | 450 kts | 225° |
| 2026-05-04 15:46 | 48.82773 | 7.76042 | 23754 ft | 453 kts | 225° |
| 2026-05-04 15:46 | 48.80558 | 7.72626 | 23872 ft | 456 kts | 224° |
| 2026-05-04 15:46 | 48.78331 | 7.69191 | 23993 ft | 457 kts | 224° |
| 2026-05-04 15:47 | 48.76094 | 7.65747 | 24101 ft | 459 kts | 224° |
| 2026-05-04 15:47 | 48.73851 | 7.62300 | 24233 ft | 460 kts | 224° |
| 2026-05-04 15:47 | 48.71596 | 7.58841 | 24342 ft | 462 kts | 224° |
| 2026-05-04 15:47 | 48.69340 | 7.55384 | 24513 ft | 461 kts | 224° |
| 2026-05-04 15:48 | 48.67125 | 7.51996 | 25496 ft | 435 kts | 224° |
| 2026-05-04 15:48 | 48.65138 | 7.48951 | 27889 ft | 379 kts | 224° |
| 2026-05-04 15:48 | 48.61686 | 7.43660 | 30205 ft | 351 kts | 224° |
| 2026-05-04 15:49 | 48.59950 | 7.41019 | 30338 ft | 356 kts | 224° |
| 2026-05-04 15:49 | 48.58192 | 7.38356 | 30459 ft | 361 kts | 223° |
| 2026-05-04 15:49 | 48.56408 | 7.35657 | 30677 ft | 363 kts | 223° |
| 2026-05-04 15:49 | 48.54670 | 7.33017 | 31431 ft | 349 kts | 223° |
| 2026-05-04 15:50 | 48.52972 | 7.30442 | 31867 ft | 345 kts | 223° |
| 2026-05-04 15:50 | 48.51293 | 7.27899 | 32320 ft | 338 kts | 223° |
| 2026-05-04 15:50 | 48.49637 | 7.25396 | 32656 ft | 337 kts | 223° |
| 2026-05-04 15:50 | 48.47947 | 7.22945 | 32844 ft | 338 kts | 219° |
| 2026-05-04 15:51 | 48.46721 | 7.21501 | 32967 ft | 338 kts | 214° |
| 2026-05-04 15:51 | 48.43996 | 7.19137 | 33232 ft | 339 kts | 204° |
| 2026-05-04 15:51 | 48.41794 | 7.17863 | 33456 ft | 338 kts | 200° |
| 2026-05-04 15:51 | 48.39691 | 7.16779 | 34643 ft | 302 kts | 200° |
| 2026-05-04 15:52 | 48.37697 | 7.15751 | 34794 ft | 306 kts | 200° |
| 2026-05-04 15:52 | 48.35677 | 7.14674 | 34741 ft | 310 kts | 201° |
| 2026-05-04 15:52 | 48.31550 | 7.12362 | 34523 ft | 325 kts | 201° |
| 2026-05-04 15:53 | 48.27235 | 7.10043 | 34493 ft | 336 kts | 200° |
| 2026-05-04 15:53 | 48.25019 | 7.08882 | 34626 ft | 335 kts | 199° |
| 2026-05-04 15:53 | 48.22806 | 7.07792 | 34788 ft | 335 kts | 199° |
| 2026-05-04 15:54 | 48.20587 | 7.06720 | 34936 ft | 335 kts | 199° |
| 2026-05-04 15:54 | 48.18363 | 7.05632 | 34995 ft | 337 kts | 199° |
| 2026-05-04 15:54 | 48.13865 | 7.03360 | 35006 ft | 346 kts | 200° |
| 2026-05-04 15:55 | 48.09257 | 7.00973 | 35006 ft | 355 kts | 200° |
| 2026-05-04 15:55 | 48.04522 | 6.98519 | 35007 ft | 366 kts | 200° |
| 2026-05-04 15:56 | 47.99640 | 6.96003 | 35010 ft | 377 kts | 200° |
| 2026-05-04 15:56 | 47.95458 | 6.93860 | 35011 ft | 387 kts | 200° |
| 2026-05-04 15:57 | 47.90296 | 6.91211 | 35020 ft | 398 kts | 200° |
| 2026-05-04 15:57 | 47.84980 | 6.88482 | 35020 ft | 409 kts | 200° |
| 2026-05-04 15:58 | 47.79543 | 6.85712 | 35018 ft | 417 kts | 200° |
| 2026-05-04 15:58 | 47.74039 | 6.82916 | 35028 ft | 418 kts | 200° |
| 2026-05-04 15:59 | 47.68524 | 6.80121 | 35027 ft | 419 kts | 200° |
| 2026-05-04 15:59 | 47.63011 | 6.77326 | 35030 ft | 419 kts | 200° |
| 2026-05-04 16:00 | 47.58426 | 6.75008 | 35029 ft | 419 kts | 200° |